sensor_id;sensor_type;location;lat;lon;timestamp;P1;durP1;ratioP1;P2;durP2;ratioP2
13672;SDS011;6909;52.202;9.876;2023-03-11T00:00:48;7.37;;;4.13;;
13672;SDS011;6909;52.202;9.876;2023-03-11T00:03:16;6.23;;;5.13;;
13672;SDS011;6909;52.202;9.876;2023-03-11T00:05:44;8.13;;;5.27;;
13672;SDS011;6909;52.202;9.876;2023-03-11T00:08:13;10.77;;;4.67;;
13672;SDS011;6909;52.202;9.876;2023-03-11T00:10:41;6.13;;;4.33;;
13672;SDS011;6909;52.202;9.876;2023-03-11T00:13:11;6.07;;;3.60;;
13672;SDS011;6909;52.202;9.876;2023-03-11T00:15:40;6.03;;;3.67;;
13672;SDS011;6909;52.202;9.876;2023-03-11T00:18:07;4.47;;;2.80;;
13672;SDS011;6909;52.202;9.876;2023-03-11T00:20:36;3.30;;;2.33;;
13672;SDS011;6909;52.202;9.876;2023-03-11T00:23:04;7.90;;;2.70;;
13672;SDS011;6909;52.202;9.876;2023-03-11T00:25:33;3.90;;;2.40;;
13672;SDS011;6909;52.202;9.876;2023-03-11T00:28:01;3.40;;;2.40;;
13672;SDS011;6909;52.202;9.876;2023-03-11T00:30:31;4.93;;;2.67;;
13672;SDS011;6909;52.202;9.876;2023-03-11T00:32:58;4.03;;;2.83;;
13672;SDS011;6909;52.202;9.876;2023-03-11T00:35:25;4.07;;;2.07;;
13672;SDS011;6909;52.202;9.876;2023-03-11T00:37:55;3.43;;;2.37;;
13672;SDS011;6909;52.202;9.876;2023-03-11T00:40:23;4.60;;;2.67;;
13672;SDS011;6909;52.202;9.876;2023-03-11T00:42:52;5.60;;;4.10;;
13672;SDS011;6909;52.202;9.876;2023-03-11T00:45:18;6.00;;;2.73;;
13672;SDS011;6909;52.202;9.876;2023-03-11T00:47:45;5.60;;;2.93;;
13672;SDS011;6909;52.202;9.876;2023-03-11T00:50:13;3.73;;;3.07;;
13672;SDS011;6909;52.202;9.876;2023-03-11T00:52:41;3.17;;;2.87;;
13672;SDS011;6909;52.202;9.876;2023-03-11T00:55:10;2.77;;;1.60;;
13672;SDS011;6909;52.202;9.876;2023-03-11T00:57:39;2.27;;;2.07;;
13672;SDS011;6909;52.202;9.876;2023-03-11T01:00:07;3.43;;;2.17;;
13672;SDS011;6909;52.202;9.876;2023-03-11T01:02:38;3.33;;;2.90;;
13672;SDS011;6909;52.202;9.876;2023-03-11T01:05:05;3.20;;;2.57;;
13672;SDS011;6909;52.202;9.876;2023-03-11T01:07:33;3.53;;;2.10;;
13672;SDS011;6909;52.202;9.876;2023-03-11T01:10:00;5.37;;;2.20;;
13672;SDS011;6909;52.202;9.876;2023-03-11T01:12:28;2.33;;;2.07;;
13672;SDS011;6909;52.202;9.876;2023-03-11T01:14:55;2.03;;;1.93;;
13672;SDS011;6909;52.202;9.876;2023-03-11T01:17:22;3.33;;;2.00;;
13672;SDS011;6909;52.202;9.876;2023-03-11T01:19:48;1.60;;;1.17;;
13672;SDS011;6909;52.202;9.876;2023-03-11T01:22:15;1.23;;;1.20;;
13672;SDS011;6909;52.202;9.876;2023-03-11T01:24:42;2.60;;;1.50;;
13672;SDS011;6909;52.202;9.876;2023-03-11T01:27:09;1.67;;;1.10;;
13672;SDS011;6909;52.202;9.876;2023-03-11T01:29:37;1.77;;;1.50;;
13672;SDS011;6909;52.202;9.876;2023-03-11T01:32:06;1.60;;;1.03;;
13672;SDS011;6909;52.202;9.876;2023-03-11T01:34:33;2.77;;;1.67;;
13672;SDS011;6909;52.202;9.876;2023-03-11T01:37:00;2.80;;;2.13;;
13672;SDS011;6909;52.202;9.876;2023-03-11T01:39:27;0.80;;;0.70;;
13672;SDS011;6909;52.202;9.876;2023-03-11T01:41:54;2.40;;;0.93;;
13672;SDS011;6909;52.202;9.876;2023-03-11T01:44:21;2.73;;;2.30;;
13672;SDS011;6909;52.202;9.876;2023-03-11T01:49:53;1.83;;;1.33;;
13672;SDS011;6909;52.202;9.876;2023-03-11T01:52:19;1.63;;;1.17;;
13672;SDS011;6909;52.202;9.876;2023-03-11T01:54:46;1.83;;;1.30;;
13672;SDS011;6909;52.202;9.876;2023-03-11T01:57:15;4.03;;;2.33;;
13672;SDS011;6909;52.202;9.876;2023-03-11T01:59:43;2.23;;;1.73;;
13672;SDS011;6909;52.202;9.876;2023-03-11T02:02:14;2.10;;;1.97;;
13672;SDS011;6909;52.202;9.876;2023-03-11T02:04:44;2.97;;;1.50;;
13672;SDS011;6909;52.202;9.876;2023-03-11T02:07:12;1.40;;;1.03;;
13672;SDS011;6909;52.202;9.876;2023-03-11T02:09:39;1.43;;;1.33;;
13672;SDS011;6909;52.202;9.876;2023-03-11T02:12:07;3.53;;;1.67;;
13672;SDS011;6909;52.202;9.876;2023-03-11T02:14:36;1.97;;;1.43;;
13672;SDS011;6909;52.202;9.876;2023-03-11T02:17:05;2.50;;;1.27;;
13672;SDS011;6909;52.202;9.876;2023-03-11T02:19:33;1.63;;;1.33;;
13672;SDS011;6909;52.202;9.876;2023-03-11T02:22:07;2.07;;;1.40;;
13672;SDS011;6909;52.202;9.876;2023-03-11T02:24:39;2.67;;;2.00;;
13672;SDS011;6909;52.202;9.876;2023-03-11T02:27:10;4.17;;;2.70;;
13672;SDS011;6909;52.202;9.876;2023-03-11T02:29:38;1.90;;;1.57;;
13672;SDS011;6909;52.202;9.876;2023-03-11T02:32:07;3.53;;;1.97;;
13672;SDS011;6909;52.202;9.876;2023-03-11T02:34:36;2.03;;;1.83;;
13672;SDS011;6909;52.202;9.876;2023-03-11T02:37:05;2.57;;;1.57;;
13672;SDS011;6909;52.202;9.876;2023-03-11T02:39:33;2.20;;;1.07;;
13672;SDS011;6909;52.202;9.876;2023-03-11T02:42:03;2.30;;;0.70;;
13672;SDS011;6909;52.202;9.876;2023-03-11T02:44:33;1.60;;;1.47;;
13672;SDS011;6909;52.202;9.876;2023-03-11T02:47:00;2.37;;;1.33;;
13672;SDS011;6909;52.202;9.876;2023-03-11T02:49:27;1.60;;;1.10;;
13672;SDS011;6909;52.202;9.876;2023-03-11T02:51:55;1.20;;;1.10;;
13672;SDS011;6909;52.202;9.876;2023-03-11T02:54:22;1.60;;;1.40;;
13672;SDS011;6909;52.202;9.876;2023-03-11T02:56:49;15.80;;;1.63;;
13672;SDS011;6909;52.202;9.876;2023-03-11T02:59:15;2.73;;;1.63;;
13672;SDS011;6909;52.202;9.876;2023-03-11T03:01:43;2.27;;;0.73;;
13672;SDS011;6909;52.202;9.876;2023-03-11T03:04:10;1.57;;;1.37;;
13672;SDS011;6909;52.202;9.876;2023-03-11T03:06:37;3.70;;;2.47;;
13672;SDS011;6909;52.202;9.876;2023-03-11T03:09:03;2.47;;;1.77;;
13672;SDS011;6909;52.202;9.876;2023-03-11T03:11:30;1.57;;;0.77;;
13672;SDS011;6909;52.202;9.876;2023-03-11T03:13:57;2.13;;;1.40;;
13672;SDS011;6909;52.202;9.876;2023-03-11T03:16:23;1.90;;;1.10;;
13672;SDS011;6909;52.202;9.876;2023-03-11T03:18:51;4.57;;;1.07;;
13672;SDS011;6909;52.202;9.876;2023-03-11T03:21:18;5.47;;;1.63;;
13672;SDS011;6909;52.202;9.876;2023-03-11T03:23:45;2.37;;;1.27;;
13672;SDS011;6909;52.202;9.876;2023-03-11T03:26:11;1.17;;;1.03;;
13672;SDS011;6909;52.202;9.876;2023-03-11T03:28:39;2.80;;;1.37;;
13672;SDS011;6909;52.202;9.876;2023-03-11T03:31:10;4.57;;;1.30;;
13672;SDS011;6909;52.202;9.876;2023-03-11T03:33:37;1.23;;;0.67;;
13672;SDS011;6909;52.202;9.876;2023-03-11T03:36:06;0.97;;;0.87;;
13672;SDS011;6909;52.202;9.876;2023-03-11T03:38:37;1.33;;;1.13;;
13672;SDS011;6909;52.202;9.876;2023-03-11T03:41:04;2.50;;;1.23;;
13672;SDS011;6909;52.202;9.876;2023-03-11T03:43:31;0.90;;;0.63;;
13672;SDS011;6909;52.202;9.876;2023-03-11T03:45:58;2.33;;;1.30;;
13672;SDS011;6909;52.202;9.876;2023-03-11T03:48:26;3.50;;;1.43;;
13672;SDS011;6909;52.202;9.876;2023-03-11T03:50:54;1.47;;;1.33;;
13672;SDS011;6909;52.202;9.876;2023-03-11T03:53:22;1.03;;;0.63;;
13672;SDS011;6909;52.202;9.876;2023-03-11T03:55:49;1.23;;;0.63;;
13672;SDS011;6909;52.202;9.876;2023-03-11T03:58:18;3.60;;;1.70;;
13672;SDS011;6909;52.202;9.876;2023-03-11T04:00:45;1.60;;;1.30;;
13672;SDS011;6909;52.202;9.876;2023-03-11T04:03:11;3.57;;;2.47;;
13672;SDS011;6909;52.202;9.876;2023-03-11T04:05:38;8.13;;;1.43;;
13672;SDS011;6909;52.202;9.876;2023-03-11T04:08:04;0.80;;;0.77;;
13672;SDS011;6909;52.202;9.876;2023-03-11T04:10:32;4.97;;;1.77;;
13672;SDS011;6909;52.202;9.876;2023-03-11T04:12:59;8.33;;;1.50;;
13672;SDS011;6909;52.202;9.876;2023-03-11T04:15:26;1.53;;;1.20;;
13672;SDS011;6909;52.202;9.876;2023-03-11T04:17:52;1.47;;;1.27;;
13672;SDS011;6909;52.202;9.876;2023-03-11T04:20:19;1.30;;;0.90;;
13672;SDS011;6909;52.202;9.876;2023-03-11T04:22:46;3.87;;;1.50;;
13672;SDS011;6909;52.202;9.876;2023-03-11T04:25:12;3.37;;;1.47;;
13672;SDS011;6909;52.202;9.876;2023-03-11T04:27:40;1.77;;;0.70;;
13672;SDS011;6909;52.202;9.876;2023-03-11T04:30:10;2.20;;;1.27;;
13672;SDS011;6909;52.202;9.876;2023-03-11T04:32:37;1.03;;;0.93;;
13672;SDS011;6909;52.202;9.876;2023-03-11T04:35:04;6.23;;;1.10;;
13672;SDS011;6909;52.202;9.876;2023-03-11T04:37:31;2.20;;;1.00;;
13672;SDS011;6909;52.202;9.876;2023-03-11T04:39:58;3.27;;;1.00;;
13672;SDS011;6909;52.202;9.876;2023-03-11T04:42:25;1.60;;;1.33;;
13672;SDS011;6909;52.202;9.876;2023-03-11T04:44:53;1.80;;;1.70;;
13672;SDS011;6909;52.202;9.876;2023-03-11T04:47:20;3.00;;;1.40;;
13672;SDS011;6909;52.202;9.876;2023-03-11T04:49:47;3.10;;;0.97;;
13672;SDS011;6909;52.202;9.876;2023-03-11T04:52:14;0.90;;;0.90;;
13672;SDS011;6909;52.202;9.876;2023-03-11T04:54:41;3.03;;;0.70;;
13672;SDS011;6909;52.202;9.876;2023-03-11T04:57:10;4.20;;;1.67;;
13672;SDS011;6909;52.202;9.876;2023-03-11T04:59:37;0.87;;;0.53;;
13672;SDS011;6909;52.202;9.876;2023-03-11T05:02:05;1.07;;;0.97;;
13672;SDS011;6909;52.202;9.876;2023-03-11T05:04:32;0.90;;;0.87;;
13672;SDS011;6909;52.202;9.876;2023-03-11T05:06:59;0.73;;;0.60;;
13672;SDS011;6909;52.202;9.876;2023-03-11T05:09:26;0.83;;;0.77;;
13672;SDS011;6909;52.202;9.876;2023-03-11T05:11:52;3.80;;;0.73;;
13672;SDS011;6909;52.202;9.876;2023-03-11T05:14:19;0.43;;;0.33;;
13672;SDS011;6909;52.202;9.876;2023-03-11T05:16:45;1.43;;;0.83;;
13672;SDS011;6909;52.202;9.876;2023-03-11T05:19:13;1.60;;;0.43;;
13672;SDS011;6909;52.202;9.876;2023-03-11T05:21:55;2.83;;;0.60;;
13672;SDS011;6909;52.202;9.876;2023-03-11T05:24:22;3.60;;;0.90;;
13672;SDS011;6909;52.202;9.876;2023-03-11T05:26:50;1.33;;;0.73;;
13672;SDS011;6909;52.202;9.876;2023-03-11T05:29:16;0.93;;;0.43;;
13672;SDS011;6909;52.202;9.876;2023-03-11T05:31:43;0.27;;;0.27;;
13672;SDS011;6909;52.202;9.876;2023-03-11T05:34:10;1.57;;;0.80;;
13672;SDS011;6909;52.202;9.876;2023-03-11T05:36:38;0.27;;;0.27;;
13672;SDS011;6909;52.202;9.876;2023-03-11T05:39:05;1.00;;;0.87;;
13672;SDS011;6909;52.202;9.876;2023-03-11T05:41:32;3.87;;;1.23;;
13672;SDS011;6909;52.202;9.876;2023-03-11T05:43:58;2.10;;;0.90;;
13672;SDS011;6909;52.202;9.876;2023-03-11T05:46:25;3.53;;;0.93;;
13672;SDS011;6909;52.202;9.876;2023-03-11T05:48:52;1.13;;;0.50;;
13672;SDS011;6909;52.202;9.876;2023-03-11T05:51:19;2.07;;;1.20;;
13672;SDS011;6909;52.202;9.876;2023-03-11T05:53:47;0.60;;;0.47;;
13672;SDS011;6909;52.202;9.876;2023-03-11T05:56:14;0.47;;;0.40;;
13672;SDS011;6909;52.202;9.876;2023-03-11T05:58:41;1.40;;;0.70;;
13672;SDS011;6909;52.202;9.876;2023-03-11T06:01:08;0.53;;;0.53;;
13672;SDS011;6909;52.202;9.876;2023-03-11T06:03:36;1.10;;;0.57;;
13672;SDS011;6909;52.202;9.876;2023-03-11T06:06:03;1.93;;;0.43;;
13672;SDS011;6909;52.202;9.876;2023-03-11T06:08:31;0.90;;;0.40;;
13672;SDS011;6909;52.202;9.876;2023-03-11T06:11:02;1.70;;;0.67;;
13672;SDS011;6909;52.202;9.876;2023-03-11T06:13:31;2.20;;;1.00;;
13672;SDS011;6909;52.202;9.876;2023-03-11T06:15:58;0.73;;;0.30;;
13672;SDS011;6909;52.202;9.876;2023-03-11T06:18:24;2.00;;;0.60;;
13672;SDS011;6909;52.202;9.876;2023-03-11T06:20:51;4.00;;;0.43;;
13672;SDS011;6909;52.202;9.876;2023-03-11T06:23:18;1.03;;;0.57;;
13672;SDS011;6909;52.202;9.876;2023-03-11T06:25:53;1.33;;;0.83;;
13672;SDS011;6909;52.202;9.876;2023-03-11T06:28:22;0.83;;;0.40;;
13672;SDS011;6909;52.202;9.876;2023-03-11T06:30:49;5.00;;;0.63;;
13672;SDS011;6909;52.202;9.876;2023-03-11T06:33:15;1.33;;;1.03;;
13672;SDS011;6909;52.202;9.876;2023-03-11T06:35:42;0.57;;;0.57;;
13672;SDS011;6909;52.202;9.876;2023-03-11T06:38:09;1.20;;;0.70;;
13672;SDS011;6909;52.202;9.876;2023-03-11T06:40:36;0.37;;;0.30;;
13672;SDS011;6909;52.202;9.876;2023-03-11T06:43:02;0.37;;;0.37;;
13672;SDS011;6909;52.202;9.876;2023-03-11T06:45:30;1.20;;;0.63;;
13672;SDS011;6909;52.202;9.876;2023-03-11T06:47:57;1.37;;;0.90;;
13672;SDS011;6909;52.202;9.876;2023-03-11T06:50:24;1.50;;;0.63;;
13672;SDS011;6909;52.202;9.876;2023-03-11T06:52:51;0.67;;;0.67;;
13672;SDS011;6909;52.202;9.876;2023-03-11T06:55:18;0.83;;;0.47;;
13672;SDS011;6909;52.202;9.876;2023-03-11T06:57:46;3.13;;;1.40;;
13672;SDS011;6909;52.202;9.876;2023-03-11T07:00:13;0.67;;;0.47;;
13672;SDS011;6909;52.202;9.876;2023-03-11T07:02:41;0.73;;;0.53;;
13672;SDS011;6909;52.202;9.876;2023-03-11T07:05:08;2.47;;;1.03;;
13672;SDS011;6909;52.202;9.876;2023-03-11T07:07:36;1.73;;;0.87;;
13672;SDS011;6909;52.202;9.876;2023-03-11T07:10:03;0.27;;;0.27;;
13672;SDS011;6909;52.202;9.876;2023-03-11T07:12:31;0.70;;;0.47;;
13672;SDS011;6909;52.202;9.876;2023-03-11T07:14:57;0.53;;;0.40;;
13672;SDS011;6909;52.202;9.876;2023-03-11T07:17:24;0.10;;;0.10;;
13672;SDS011;6909;52.202;9.876;2023-03-11T07:19:53;0.73;;;0.60;;
13672;SDS011;6909;52.202;9.876;2023-03-11T07:22:20;0.60;;;0.40;;
13672;SDS011;6909;52.202;9.876;2023-03-11T07:24:47;7.23;;;0.50;;
13672;SDS011;6909;52.202;9.876;2023-03-11T07:27:14;0.50;;;0.50;;
13672;SDS011;6909;52.202;9.876;2023-03-11T07:29:41;1.13;;;0.63;;
13672;SDS011;6909;52.202;9.876;2023-03-11T07:32:08;1.13;;;0.67;;
13672;SDS011;6909;52.202;9.876;2023-03-11T07:34:35;1.63;;;0.40;;
13672;SDS011;6909;52.202;9.876;2023-03-11T07:37:03;0.53;;;0.20;;
13672;SDS011;6909;52.202;9.876;2023-03-11T07:39:30;0.83;;;0.50;;
13672;SDS011;6909;52.202;9.876;2023-03-11T07:41:56;3.50;;;0.77;;
13672;SDS011;6909;52.202;9.876;2023-03-11T07:44:23;1.80;;;0.27;;
13672;SDS011;6909;52.202;9.876;2023-03-11T07:46:50;4.57;;;0.50;;
13672;SDS011;6909;52.202;9.876;2023-03-11T07:49:16;0.87;;;0.77;;
13672;SDS011;6909;52.202;9.876;2023-03-11T07:51:43;0.70;;;0.57;;
13672;SDS011;6909;52.202;9.876;2023-03-11T07:54:11;0.40;;;0.40;;
13672;SDS011;6909;52.202;9.876;2023-03-11T07:56:39;1.60;;;0.30;;
13672;SDS011;6909;52.202;9.876;2023-03-11T07:59:06;0.87;;;0.40;;
13672;SDS011;6909;52.202;9.876;2023-03-11T08:01:32;0.47;;;0.40;;
13672;SDS011;6909;52.202;9.876;2023-03-11T08:04:02;1.23;;;0.67;;
13672;SDS011;6909;52.202;9.876;2023-03-11T08:06:31;2.43;;;1.00;;
13672;SDS011;6909;52.202;9.876;2023-03-11T08:08:59;0.67;;;0.63;;
13672;SDS011;6909;52.202;9.876;2023-03-11T08:11:29;0.53;;;0.40;;
13672;SDS011;6909;52.202;9.876;2023-03-11T08:13:56;0.70;;;0.40;;
13672;SDS011;6909;52.202;9.876;2023-03-11T08:16:23;8.50;;;0.63;;
13672;SDS011;6909;52.202;9.876;2023-03-11T08:18:51;1.40;;;0.43;;
13672;SDS011;6909;52.202;9.876;2023-03-11T08:21:19;2.10;;;1.40;;
13672;SDS011;6909;52.202;9.876;2023-03-11T08:23:47;0.93;;;0.50;;
13672;SDS011;6909;52.202;9.876;2023-03-11T08:26:14;0.90;;;0.40;;
13672;SDS011;6909;52.202;9.876;2023-03-11T08:28:43;2.40;;;0.80;;
13672;SDS011;6909;52.202;9.876;2023-03-11T08:31:11;1.27;;;0.97;;
13672;SDS011;6909;52.202;9.876;2023-03-11T08:33:38;0.60;;;0.40;;
13672;SDS011;6909;52.202;9.876;2023-03-11T08:36:05;0.70;;;0.70;;
13672;SDS011;6909;52.202;9.876;2023-03-11T08:38:32;1.43;;;0.60;;
13672;SDS011;6909;52.202;9.876;2023-03-11T08:40:59;0.97;;;0.47;;
13672;SDS011;6909;52.202;9.876;2023-03-11T08:43:26;5.30;;;1.67;;
13672;SDS011;6909;52.202;9.876;2023-03-11T08:45:54;1.07;;;0.73;;
13672;SDS011;6909;52.202;9.876;2023-03-11T08:48:21;0.80;;;0.57;;
13672;SDS011;6909;52.202;9.876;2023-03-11T08:50:49;2.63;;;0.50;;
13672;SDS011;6909;52.202;9.876;2023-03-11T08:53:16;1.20;;;1.10;;
13672;SDS011;6909;52.202;9.876;2023-03-11T08:55:43;1.20;;;0.63;;
13672;SDS011;6909;52.202;9.876;2023-03-11T08:58:09;1.83;;;0.80;;
13672;SDS011;6909;52.202;9.876;2023-03-11T09:00:36;0.57;;;0.57;;
13672;SDS011;6909;52.202;9.876;2023-03-11T09:03:04;8.03;;;1.07;;
13672;SDS011;6909;52.202;9.876;2023-03-11T09:05:31;1.47;;;0.83;;
13672;SDS011;6909;52.202;9.876;2023-03-11T09:07:58;0.77;;;0.70;;
13672;SDS011;6909;52.202;9.876;2023-03-11T09:10:24;3.03;;;0.90;;
13672;SDS011;6909;52.202;9.876;2023-03-11T09:12:51;1.20;;;1.00;;
13672;SDS011;6909;52.202;9.876;2023-03-11T09:15:18;1.53;;;0.70;;
13672;SDS011;6909;52.202;9.876;2023-03-11T09:17:45;3.73;;;0.40;;
13672;SDS011;6909;52.202;9.876;2023-03-11T09:20:13;0.97;;;0.80;;
13672;SDS011;6909;52.202;9.876;2023-03-11T09:22:41;2.83;;;0.60;;
13672;SDS011;6909;52.202;9.876;2023-03-11T09:25:08;0.80;;;0.80;;
13672;SDS011;6909;52.202;9.876;2023-03-11T09:27:35;1.47;;;0.73;;
13672;SDS011;6909;52.202;9.876;2023-03-11T09:30:03;1.27;;;1.17;;
13672;SDS011;6909;52.202;9.876;2023-03-11T09:32:31;12.57;;;1.43;;
13672;SDS011;6909;52.202;9.876;2023-03-11T09:34:58;0.70;;;0.43;;
13672;SDS011;6909;52.202;9.876;2023-03-11T09:37:26;0.87;;;0.63;;
13672;SDS011;6909;52.202;9.876;2023-03-11T09:39:54;3.27;;;0.90;;
13672;SDS011;6909;52.202;9.876;2023-03-11T09:42:23;0.90;;;0.90;;
13672;SDS011;6909;52.202;9.876;2023-03-11T09:44:58;1.30;;;0.93;;
13672;SDS011;6909;52.202;9.876;2023-03-11T09:47:32;1.73;;;0.60;;
13672;SDS011;6909;52.202;9.876;2023-03-11T09:50:12;0.90;;;0.40;;
13672;SDS011;6909;52.202;9.876;2023-03-11T09:52:47;3.10;;;1.10;;
13672;SDS011;6909;52.202;9.876;2023-03-11T09:55:32;0.97;;;0.70;;
13672;SDS011;6909;52.202;9.876;2023-03-11T09:58:03;1.25;;;0.80;;
13672;SDS011;6909;52.202;9.876;2023-03-11T10:00:37;1.67;;;0.40;;
13672;SDS011;6909;52.202;9.876;2023-03-11T10:03:05;2.13;;;0.53;;
13672;SDS011;6909;52.202;9.876;2023-03-11T10:05:38;0.70;;;0.50;;
13672;SDS011;6909;52.202;9.876;2023-03-11T10:08:11;2.10;;;1.03;;
13672;SDS011;6909;52.202;9.876;2023-03-11T10:10:45;0.37;;;0.37;;
13672;SDS011;6909;52.202;9.876;2023-03-11T10:13:17;0.53;;;0.30;;
13672;SDS011;6909;52.202;9.876;2023-03-11T10:15:54;1.07;;;0.50;;
13672;SDS011;6909;52.202;9.876;2023-03-11T10:18:33;2.13;;;1.13;;
13672;SDS011;6909;52.202;9.876;2023-03-11T10:21:09;1.90;;;0.33;;
13672;SDS011;6909;52.202;9.876;2023-03-11T10:23:46;2.93;;;0.60;;
13672;SDS011;6909;52.202;9.876;2023-03-11T10:26:22;0.83;;;0.60;;
13672;SDS011;6909;52.202;9.876;2023-03-11T10:28:57;1.83;;;0.70;;
13672;SDS011;6909;52.202;9.876;2023-03-11T10:31:29;2.73;;;1.63;;
13672;SDS011;6909;52.202;9.876;2023-03-11T10:34:01;0.83;;;0.40;;
13672;SDS011;6909;52.202;9.876;2023-03-11T10:36:33;5.33;;;0.77;;
13672;SDS011;6909;52.202;9.876;2023-03-11T10:39:05;0.83;;;0.63;;
13672;SDS011;6909;52.202;9.876;2023-03-11T10:41:38;7.63;;;1.00;;
13672;SDS011;6909;52.202;9.876;2023-03-11T10:44:09;0.40;;;0.40;;
13672;SDS011;6909;52.202;9.876;2023-03-11T10:46:38;0.70;;;0.57;;
13672;SDS011;6909;52.202;9.876;2023-03-11T10:49:07;0.30;;;0.30;;
13672;SDS011;6909;52.202;9.876;2023-03-11T10:51:38;0.50;;;0.47;;
13672;SDS011;6909;52.202;9.876;2023-03-11T10:54:07;8.33;;;1.10;;
13672;SDS011;6909;52.202;9.876;2023-03-11T10:56:34;0.30;;;0.30;;
13672;SDS011;6909;52.202;9.876;2023-03-11T10:59:04;1.60;;;0.60;;
13672;SDS011;6909;52.202;9.876;2023-03-11T11:01:52;0.40;;;0.40;;
13672;SDS011;6909;52.202;9.876;2023-03-11T11:04:30;1.07;;;0.97;;
13672;SDS011;6909;52.202;9.876;2023-03-11T11:07:18;1.07;;;0.83;;
13672;SDS011;6909;52.202;9.876;2023-03-11T11:09:48;0.30;;;0.30;;
13672;SDS011;6909;52.202;9.876;2023-03-11T11:12:42;2.13;;;0.53;;
13672;SDS011;6909;52.202;9.876;2023-03-11T11:15:21;0.50;;;0.50;;
13672;SDS011;6909;52.202;9.876;2023-03-11T11:17:50;0.20;;;0.20;;
13672;SDS011;6909;52.202;9.876;2023-03-11T11:20:19;0.60;;;0.60;;
13672;SDS011;6909;52.202;9.876;2023-03-11T11:22:49;1.40;;;0.80;;
13672;SDS011;6909;52.202;9.876;2023-03-11T11:25:26;0.43;;;0.37;;
13672;SDS011;6909;52.202;9.876;2023-03-11T11:27:55;2.47;;;0.57;;
13672;SDS011;6909;52.202;9.876;2023-03-11T11:30:23;0.30;;;0.30;;
13672;SDS011;6909;52.202;9.876;2023-03-11T11:32:51;0.73;;;0.50;;
13672;SDS011;6909;52.202;9.876;2023-03-11T11:35:18;0.67;;;0.40;;
13672;SDS011;6909;52.202;9.876;2023-03-11T11:37:47;0.63;;;0.60;;
13672;SDS011;6909;52.202;9.876;2023-03-11T11:40:18;0.87;;;0.70;;
13672;SDS011;6909;52.202;9.876;2023-03-11T11:42:53;0.40;;;0.40;;
13672;SDS011;6909;52.202;9.876;2023-03-11T11:45:25;3.43;;;0.67;;
13672;SDS011;6909;52.202;9.876;2023-03-11T11:47:56;1.27;;;0.43;;
13672;SDS011;6909;52.202;9.876;2023-03-11T11:50:28;0.20;;;0.20;;
13672;SDS011;6909;52.202;9.876;2023-03-11T11:53:01;0.33;;;0.20;;
13672;SDS011;6909;52.202;9.876;2023-03-11T11:55:34;0.57;;;0.57;;
13672;SDS011;6909;52.202;9.876;2023-03-11T11:58:06;0.93;;;0.40;;
13672;SDS011;6909;52.202;9.876;2023-03-11T12:00:36;0.30;;;0.30;;
13672;SDS011;6909;52.202;9.876;2023-03-11T12:03:22;5.40;;;1.00;;
13672;SDS011;6909;52.202;9.876;2023-03-11T12:06:05;0.77;;;0.60;;
13672;SDS011;6909;52.202;9.876;2023-03-11T12:08:40;1.07;;;0.30;;
13672;SDS011;6909;52.202;9.876;2023-03-11T12:11:13;0.63;;;0.13;;
13672;SDS011;6909;52.202;9.876;2023-03-11T12:13:46;1.47;;;0.60;;
13672;SDS011;6909;52.202;9.876;2023-03-11T12:16:22;0.20;;;0.20;;
13672;SDS011;6909;52.202;9.876;2023-03-11T12:18:57;1.20;;;0.60;;
13672;SDS011;6909;52.202;9.876;2023-03-11T12:21:32;0.40;;;0.20;;
13672;SDS011;6909;52.202;9.876;2023-03-11T12:24:32;0.67;;;0.40;;
13672;SDS011;6909;52.202;9.876;2023-03-11T12:27:14;0.50;;;0.40;;
13672;SDS011;6909;52.202;9.876;2023-03-11T12:29:46;0.30;;;0.30;;
13672;SDS011;6909;52.202;9.876;2023-03-11T12:32:19;0.90;;;0.60;;
13672;SDS011;6909;52.202;9.876;2023-03-11T12:34:50;0.30;;;0.20;;
13672;SDS011;6909;52.202;9.876;2023-03-11T12:37:17;0.53;;;0.43;;
13672;SDS011;6909;52.202;9.876;2023-03-11T12:39:47;0.10;;;0.10;;
13672;SDS011;6909;52.202;9.876;2023-03-11T12:42:16;0.90;;;0.40;;
13672;SDS011;6909;52.202;9.876;2023-03-11T12:44:44;0.83;;;0.27;;
13672;SDS011;6909;52.202;9.876;2023-03-11T12:47:23;0.77;;;0.30;;
13672;SDS011;6909;52.202;9.876;2023-03-11T12:49:51;0.33;;;0.20;;
13672;SDS011;6909;52.202;9.876;2023-03-11T12:52:21;3.40;;;0.40;;
13672;SDS011;6909;52.202;9.876;2023-03-11T12:57:56;0.83;;;0.30;;
13672;SDS011;6909;52.202;9.876;2023-03-11T13:00:46;0.37;;;0.30;;
13672;SDS011;6909;52.202;9.876;2023-03-11T13:09:22;0.30;;;0.30;;
13672;SDS011;6909;52.202;9.876;2023-03-11T13:11:49;0.20;;;0.20;;
13672;SDS011;6909;52.202;9.876;2023-03-11T13:14:26;0.00;;;0.00;;
13672;SDS011;6909;52.202;9.876;2023-03-11T13:16:56;4.03;;;0.20;;
13672;SDS011;6909;52.202;9.876;2023-03-11T13:19:47;2.40;;;0.20;;
13672;SDS011;6909;52.202;9.876;2023-03-11T13:25:31;0.07;;;0.00;;
13672;SDS011;6909;52.202;9.876;2023-03-11T13:28:10;3.40;;;0.20;;
13672;SDS011;6909;52.202;9.876;2023-03-11T13:30:58;0.20;;;0.20;;
13672;SDS011;6909;52.202;9.876;2023-03-11T13:33:41;0.23;;;0.10;;
13672;SDS011;6909;52.202;9.876;2023-03-11T13:36:18;0.50;;;0.10;;
13672;SDS011;6909;52.202;9.876;2023-03-11T13:41:47;0.10;;;0.10;;
13672;SDS011;6909;52.202;9.876;2023-03-11T13:44:19;1.00;;;0.30;;
13672;SDS011;6909;52.202;9.876;2023-03-11T13:46:52;6.50;;;0.17;;
13672;SDS011;6909;52.202;9.876;2023-03-11T13:49:24;2.77;;;0.13;;
13672;SDS011;6909;52.202;9.876;2023-03-11T13:51:57;3.20;;;0.40;;
13672;SDS011;6909;52.202;9.876;2023-03-11T13:54:30;0.20;;;0.07;;
13672;SDS011;6909;52.202;9.876;2023-03-11T13:57:01;0.30;;;0.20;;
13672;SDS011;6909;52.202;9.876;2023-03-11T13:59:28;0.30;;;0.23;;
13672;SDS011;6909;52.202;9.876;2023-03-11T14:01:58;1.37;;;0.17;;
13672;SDS011;6909;52.202;9.876;2023-03-11T14:04:27;0.20;;;0.20;;
13672;SDS011;6909;52.202;9.876;2023-03-11T14:06:55;0.07;;;0.00;;
13672;SDS011;6909;52.202;9.876;2023-03-11T14:09:23;0.07;;;0.07;;
13672;SDS011;6909;52.202;9.876;2023-03-11T14:11:51;2.00;;;0.37;;
13672;SDS011;6909;52.202;9.876;2023-03-11T14:14:26;0.00;;;0.00;;
13672;SDS011;6909;52.202;9.876;2023-03-11T14:17:01;0.10;;;0.10;;
13672;SDS011;6909;52.202;9.876;2023-03-11T14:19:29;0.20;;;0.20;;
13672;SDS011;6909;52.202;9.876;2023-03-11T14:21:56;0.13;;;0.13;;
13672;SDS011;6909;52.202;9.876;2023-03-11T14:24:24;0.10;;;0.10;;
13672;SDS011;6909;52.202;9.876;2023-03-11T14:26:55;0.30;;;0.30;;
13672;SDS011;6909;52.202;9.876;2023-03-11T14:29:27;3.10;;;0.37;;
13672;SDS011;6909;52.202;9.876;2023-03-11T14:31:57;0.23;;;0.23;;
13672;SDS011;6909;52.202;9.876;2023-03-11T14:34:27;5.13;;;0.60;;
13672;SDS011;6909;52.202;9.876;2023-03-11T14:36:56;0.00;;;0.00;;
13672;SDS011;6909;52.202;9.876;2023-03-11T14:39:25;3.00;;;0.20;;
13672;SDS011;6909;52.202;9.876;2023-03-11T14:41:54;1.50;;;0.43;;
13672;SDS011;6909;52.202;9.876;2023-03-11T14:44:24;1.90;;;0.10;;
13672;SDS011;6909;52.202;9.876;2023-03-11T14:46:53;0.30;;;0.30;;
13672;SDS011;6909;52.202;9.876;2023-03-11T14:49:33;8.00;;;0.70;;
13672;SDS011;6909;52.202;9.876;2023-03-11T14:52:12;3.33;;;0.33;;
13672;SDS011;6909;52.202;9.876;2023-03-11T14:54:44;1.10;;;0.53;;
13672;SDS011;6909;52.202;9.876;2023-03-11T14:57:16;0.30;;;0.30;;
13672;SDS011;6909;52.202;9.876;2023-03-11T14:59:44;0.17;;;0.17;;
13672;SDS011;6909;52.202;9.876;2023-03-11T15:02:26;2.53;;;0.47;;
13672;SDS011;6909;52.202;9.876;2023-03-11T15:05:04;0.97;;;0.40;;
13672;SDS011;6909;52.202;9.876;2023-03-11T15:07:38;0.20;;;0.03;;
13672;SDS011;6909;52.202;9.876;2023-03-11T15:10:06;0.30;;;0.30;;
13672;SDS011;6909;52.202;9.876;2023-03-11T15:12:34;0.00;;;0.00;;
13672;SDS011;6909;52.202;9.876;2023-03-11T15:15:19;0.10;;;0.10;;
13672;SDS011;6909;52.202;9.876;2023-03-11T15:17:50;0.30;;;0.30;;
13672;SDS011;6909;52.202;9.876;2023-03-11T15:20:23;0.33;;;0.23;;
13672;SDS011;6909;52.202;9.876;2023-03-11T15:22:53;0.10;;;0.10;;
13672;SDS011;6909;52.202;9.876;2023-03-11T15:25:26;0.30;;;0.20;;
13672;SDS011;6909;52.202;9.876;2023-03-11T15:27:53;0.40;;;0.13;;
13672;SDS011;6909;52.202;9.876;2023-03-11T15:30:22;0.63;;;0.20;;
13672;SDS011;6909;52.202;9.876;2023-03-11T15:32:59;0.20;;;0.20;;